Time;durP1;ratioP1;P1;durP2;ratioP2;P2;SDS_P1;SDS_P2;PMS_P1;PMS_P2;Temp;Humidity;BMP_temperature;BMP_pressure;BME280_temperature;BME280_humidity;BME280_pressure;Samples;Min_cycle;Max_cycle;Signal;HPM_P1;HPM_P2
2022/12/17 13:06:42;;;;;;;;;;;16.40;99.90;;;;;;5055110;28;19919;-68
2022/12/17 13:09:15;;;;;;;;;;;16.50;99.90;;;;;;5053867;28;19923;-69
2022/12/17 13:12:00;;;;;;;;;;;16.50;99.90;;;;;;5056540;28;19940;-69
2022/12/17 13:14:28;;;;;;;;;;;16.40;99.90;;;;;;5053802;28;19916;-68
2022/12/17 13:17:03;;;;;;;;;;;16.50;99.90;;;;;;5055205;28;20353;-69
2022/12/17 13:19:33;;;;;;;;;;;16.40;99.90;;;;;;5054949;28;19912;-69
2022/12/17 13:22:27;;;;;;;;;;;16.50;99.90;;;;;;5054441;28;19916;-68
2022/12/17 13:24:56;;;;;;;;;;;16.60;99.90;;;;;;5055855;28;19913;-69
2022/12/17 13:27:31;;;;;;;;;;;16.50;99.90;;;;;;5051668;28;20326;-68
2022/12/17 13:30:10;;;;;;;;;;;16.50;99.90;;;;;;5053291;28;20412;-70
2022/12/17 13:32:44;;;;;;;;;;;16.50;99.90;;;;;;5055798;28;20010;-68
2022/12/17 13:35:29;;;;;;;;;;;16.40;99.90;;;;;;5053502;28;19908;-69
2022/12/17 13:38:15;;;;;;;;;;;16.50;99.90;;;;;;5054505;28;19919;-69
2022/12/17 13:40:47;;;;;;;;;;;16.40;99.90;;;;;;5055620;28;19914;-68
2022/12/17 13:43:19;;;;;;;;;;;16.40;99.90;;;;;;5053313;28;19909;-68
2022/12/17 13:45:46;;;;;;;;;;;16.40;99.90;;;;;;5055453;28;20448;-68
2022/12/17 13:48:23;;;;;;;;;;;16.30;99.90;;;;;;5053334;28;19908;-68
2022/12/17 13:51:00;;;;;;;;;;;16.40;99.90;;;;;;5054464;28;19942;-69
2022/12/17 13:53:27;;;;;;;;;;;16.30;99.90;;;;;;5036270;28;19913;-69
2022/12/17 13:55:55;;;;;;;;;;;16.30;99.90;;;;;;5034718;28;19920;-68
2022/12/17 13:58:24;;;;;;;;;;;16.30;99.90;;;;;;5032866;28;20239;-69
2022/12/17 14:00:51;;;;;;;;;;;16.20;99.90;;;;;;5035602;28;19935;-67
2022/12/17 14:03:22;;;;;;;;;;;16.20;99.90;;;;;;5050116;28;19912;-68
2022/12/17 14:05:48;;;;;;;;;;;16.20;99.90;;;;;;5055069;28;20116;-68
2022/12/17 14:08:17;;;;;;;;;;;16.10;99.90;;;;;;5052957;28;20054;-68
2022/12/17 14:13:41;;;;;;;;;;;16.10;99.90;;;;;;5051651;28;19913;-71
2022/12/17 14:16:07;;;;;;;;;;;16.10;99.90;;;;;;5054050;28;20007;-72
2022/12/17 14:18:34;;;;;;;;;;;16.20;99.90;;;;;;5052598;28;20470;-71
2022/12/17 14:21:01;;;;;;;;;;;16.10;99.90;;;;;;5054322;28;19935;-69
2022/12/17 14:23:32;;;;;;;;;;;16.10;99.90;;;;;;5051903;28;19909;-69
2022/12/17 14:25:59;;;;;;;;;;;16.10;99.90;;;;;;5054202;28;20400;-71
2022/12/17 14:28:33;;;;;;;;;;;16.10;99.90;;;;;;5036664;28;19920;-71
2022/12/17 14:31:07;;;;;;;;;;;16.10;99.90;;;;;;5033942;28;19921;-70
2022/12/17 14:33:35;;;;;;;;;;;16.00;99.90;;;;;;5031602;28;19909;-70
2022/12/17 14:36:09;;;;;;;;;;;15.90;99.90;;;;;;5034093;28;19920;-69
2022/12/17 14:38:36;;;;;;;;;;;15.90;99.90;;;;;;5032327;28;20347;-70
2022/12/17 14:42:24;;;;;;;;;;;15.80;99.90;;;;;;5034409;28;19912;-69
2022/12/17 14:43:57;;;;;;;;;;;15.80;99.90;;;;;;5034258;28;19924;-68
2022/12/17 14:46:24;;;;;;;;;;;15.80;99.90;;;;;;5033916;28;20259;-70
2022/12/17 14:49:00;;;;;;;;;;;15.80;99.90;;;;;;5033007;28;19942;-69
2022/12/17 14:51:34;;;;;;;;;;;15.80;99.90;;;;;;5046826;28;19913;-69
2022/12/17 14:54:13;;;;;;;;;;;15.80;99.90;;;;;;5053950;28;19912;-69
2022/12/17 14:56:40;;;;;;;;;;;15.70;99.90;;;;;;5051867;28;19920;-70
2022/12/17 14:59:24;;;;;;;;;;;15.80;99.90;;;;;;5053422;28;19999;-69
2022/12/17 15:01:54;;;;;;;;;;;15.80;99.90;;;;;;5032936;28;19913;-69
2022/12/17 15:04:21;;;;;;;;;;;15.70;99.90;;;;;;5033428;28;19909;-69
2022/12/17 15:06:48;;;;;;;;;;;15.80;99.90;;;;;;5032431;28;19931;-68
2022/12/17 15:09:15;;;;;;;;;;;15.80;99.90;;;;;;5034042;28;19917;-68
2022/12/17 15:11:42;;;;;;;;;;;15.80;99.90;;;;;;5032902;28;19932;-70
2022/12/17 15:14:08;;;;;;;;;;;15.70;99.90;;;;;;5033007;28;19915;-68
2022/12/17 15:16:35;;;;;;;;;;;15.70;99.90;;;;;;5044202;28;19912;-68
2022/12/17 15:19:02;;;;;;;;;;;15.70;99.90;;;;;;5054785;28;19912;-67
2022/12/17 15:21:28;;;;;;;;;;;15.60;99.90;;;;;;5037142;28;20000;-69
2022/12/17 15:23:55;;;;;;;;;;;15.60;99.90;;;;;;5035920;28;19927;-68
2022/12/17 15:26:22;;;;;;;;;;;15.60;99.90;;;;;;5036521;28;19924;-68
2022/12/17 15:28:49;;;;;;;;;;;15.40;99.90;;;;;;5037726;28;19909;-68
2022/12/17 15:31:15;;;;;;;;;;;15.50;99.90;;;;;;5038543;28;19909;-69
2022/12/17 15:33:42;;;;;;;;;;;15.50;99.90;;;;;;5038364;28;19916;-69
2022/12/17 15:36:09;;;;;;;;;;;15.40;99.90;;;;;;5037911;28;20353;-71
2022/12/17 15:38:36;;;;;;;;;;;15.50;99.90;;;;;;5039971;28;20289;-71
2022/12/17 15:43:09;;;;;;;;;;;15.40;99.90;;;;;;5038569;28;19976;-71
2022/12/17 15:43:50;;;;;;;;;;;15.40;99.90;;;;;;5040837;28;19967;-69
2022/12/17 15:46:17;;;;;;;;;;;15.40;99.90;;;;;;5036199;28;20365;-69
2022/12/17 15:48:43;;;;;;;;;;;15.40;99.90;;;;;;5039888;28;19959;-69
2022/12/17 15:51:10;;;;;;;;;;;15.50;99.90;;;;;;5037777;28;20373;-69
2022/12/17 15:53:37;;;;;;;;;;;15.50;99.90;;;;;;5038837;28;20149;-69
2022/12/17 15:56:03;;;;;;;;;;;15.50;99.90;;;;;;5040637;28;19978;-68
2022/12/17 15:58:30;;;;;;;;;;;15.50;99.90;;;;;;5037165;28;20279;-68
2022/12/17 16:00:57;;;;;;;;;;;15.40;99.90;;;;;;5040014;28;19932;-68
2022/12/17 16:03:23;;;;;;;;;;;15.50;99.90;;;;;;5036413;28;20012;-69
2022/12/17 16:05:52;;;;;;;;;;;15.50;99.90;;;;;;5045917;28;19921;-68
2022/12/17 16:08:18;;;;;;;;;;;15.50;99.90;;;;;;5056612;28;19983;-68
2022/12/17 16:10:45;;;;;;;;;;;15.60;99.90;;;;;;5059703;28;20023;-68
2022/12/17 16:13:11;;;;;;;;;;;15.50;99.90;;;;;;5057494;28;19913;-68
2022/12/17 16:15:38;;;;;;;;;;;15.50;99.90;;;;;;5058325;28;19978;-68
2022/12/17 16:18:05;;;;;;;;;;;15.40;99.90;;;;;;5059806;28;19913;-68
2022/12/17 16:20:31;;;;;;;;;;;15.50;99.90;;;;;;5046285;28;19920;-69
2022/12/17 16:22:58;;;;;;;;;;;15.40;99.90;;;;;;5039790;28;20010;-70
2022/12/17 16:25:24;;;;;;;;;;;15.40;99.90;;;;;;5036304;28;19913;-68
2022/12/17 16:27:51;;;;;;;;;;;15.50;99.90;;;;;;5040503;28;19921;-70
2022/12/17 16:30:18;;;;;;;;;;;15.40;99.90;;;;;;5033956;28;19917;-70
2022/12/17 16:32:44;;;;;;;;;;;15.50;99.90;;;;;;5039110;28;19913;-69
2022/12/17 16:35:11;;;;;;;;;;;15.40;99.90;;;;;;5038632;28;19944;-70
2022/12/17 16:37:38;;;;;;;;;;;15.40;99.90;;;;;;5034433;28;20729;-69
2022/12/17 16:40:05;;;;;;;;;;;15.30;99.90;;;;;;5037536;28;19923;-68
2022/12/17 16:42:31;;;;;;;;;;;15.40;99.90;;;;;;5033925;28;20629;-68
2022/12/17 16:44:58;;;;;;;;;;;15.40;99.90;;;;;;5037526;28;19915;-68
2022/12/17 16:47:24;;;;;;;;;;;15.30;99.90;;;;;;5034867;28;19908;-68
2022/12/17 16:49:51;;;;;;;;;;;15.30;99.90;;;;;;5035049;28;19920;-69
2022/12/17 16:52:18;;;;;;;;;;;15.20;99.90;;;;;;5035456;28;19923;-70
2022/12/17 16:54:44;;;;;;;;;;;15.20;99.90;;;;;;5034958;28;19955;-68
2022/12/17 16:57:11;;;;;;;;;;;15.20;99.90;;;;;;5037657;28;19960;-68
2022/12/17 16:59:37;;;;;;;;;;;15.20;99.90;;;;;;5032778;28;19915;-71
2022/12/17 17:02:04;;;;;;;;;;;15.20;99.90;;;;;;5037379;28;20420;-69
2022/12/17 17:04:31;;;;;;;;;;;15.20;99.90;;;;;;5034053;28;20366;-69
2022/12/17 17:06:57;;;;;;;;;;;15.10;99.90;;;;;;5036056;28;19909;-69
2022/12/17 17:09:24;;;;;;;;;;;15.10;99.90;;;;;;5034999;28;19917;-68
2022/12/17 17:11:53;;;;;;;;;;;15.10;99.90;;;;;;5035246;28;20127;-67
2022/12/17 17:14:20;;;;;;;;;;;15.10;99.90;;;;;;5036243;28;19916;-70
2022/12/17 17:16:46;;;;;;;;;;;15.10;99.90;;;;;;5032785;28;19935;-69
2022/12/17 17:19:13;;;;;;;;;;;15.10;99.90;;;;;;5037626;28;19923;-68
2022/12/17 17:21:41;;;;;;;;;;;15.00;99.90;;;;;;5030737;28;19909;-69
2022/12/17 17:24:10;;;;;;;;;;;15.00;99.90;;;;;;5037554;28;19908;-70
2022/12/17 17:26:37;;;;;;;;;;;15.00;99.90;;;;;;5033850;28;20377;-70
2022/12/17 17:29:04;;;;;;;;;;;15.00;99.90;;;;;;5035381;28;19920;-70
2022/12/17 17:31:31;;;;;;;;;;;15.10;99.90;;;;;;5035315;28;19948;-69
2022/12/17 17:33:58;;;;;;;;;;;15.10;99.90;;;;;;5032236;28;19908;-70
2022/12/17 17:36:28;;;;;;;;;;;15.10;99.90;;;;;;5035337;28;19916;-68
2022/12/17 17:38:56;;;;;;;;;;;15.10;99.90;;;;;;5033359;28;20324;-70
2022/12/17 17:41:24;;;;;;;;;;;15.10;99.90;;;;;;5038274;28;19935;-67
2022/12/17 17:43:54;;;;;;;;;;;15.10;99.90;;;;;;5035672;28;19917;-68
2022/12/17 17:46:21;;;;;;;;;;;15.10;99.90;;;;;;5038551;28;19917;-70
2022/12/17 17:48:48;;;;;;;;;;;15.10;99.90;;;;;;5034754;28;20000;-70
2022/12/17 17:51:19;;;;;;;;;;;15.10;99.90;;;;;;5038762;28;20408;-68
2022/12/17 17:53:47;;;;;;;;;;;15.00;99.90;;;;;;5037361;28;20298;-68
2022/12/17 17:56:15;;;;;;;;;;;15.00;99.90;;;;;;5034508;28;19920;-68
2022/12/17 17:58:43;;;;;;;;;;;14.90;99.90;;;;;;5037983;28;19951;-70
2022/12/17 18:01:10;;;;;;;;;;;14.90;99.90;;;;;;5034428;28;19932;-70
2022/12/17 18:03:37;;;;;;;;;;;14.90;99.90;;;;;;5037583;28;20387;-69
2022/12/17 18:06:06;;;;;;;;;;;14.90;99.90;;;;;;5032101;28;19917;-71
2022/12/17 18:08:33;;;;;;;;;;;14.90;99.90;;;;;;5037678;28;19909;-68
2022/12/17 18:11:00;;;;;;;;;;;14.90;99.90;;;;;;5035312;28;19916;-70
2022/12/17 18:16:13;;;;;;;;;;;14.80;99.90;;;;;;5032390;28;19916;-68
2022/12/17 18:18:39;;;;;;;;;;;14.80;99.90;;;;;;5037568;28;19984;-70
2022/12/17 18:21:11;;;;;;;;;;;14.70;99.90;;;;;;5033811;28;19909;-67
2022/12/17 18:23:38;;;;;;;;;;;14.70;99.90;;;;;;5035136;28;20273;-68
2022/12/17 18:26:05;;;;;;;;;;;14.70;99.90;;;;;;5034770;28;19919;-68
2022/12/17 18:28:32;;;;;;;;;;;14.70;99.90;;;;;;5037544;28;19959;-68
2022/12/17 18:31:04;;;;;;;;;;;14.70;99.90;;;;;;5035055;28;19921;-71
2022/12/17 18:33:31;;;;;;;;;;;14.60;99.90;;;;;;5032514;28;19956;-70
2022/12/17 18:35:58;;;;;;;;;;;14.60;99.90;;;;;;5034397;28;19971;-68
2022/12/17 18:38:24;;;;;;;;;;;14.60;99.90;;;;;;5030985;28;20012;-69
2022/12/17 18:40:51;;;;;;;;;;;14.60;99.90;;;;;;5034943;28;19921;-69
2022/12/17 18:43:23;;;;;;;;;;;14.70;99.90;;;;;;5032161;28;19909;-69
2022/12/17 18:45:51;;;;;;;;;;;14.70;99.90;;;;;;5033880;28;20273;-70
2022/12/17 18:48:18;;;;;;;;;;;14.70;99.90;;;;;;5031455;28;19909;-69
2022/12/17 18:50:45;;;;;;;;;;;14.70;99.90;;;;;;5037651;28;19927;-67
2022/12/17 18:53:12;;;;;;;;;;;14.60;99.90;;;;;;5051630;28;19913;-68
2022/12/17 18:55:39;;;;;;;;;;;14.60;99.90;;;;;;5043474;28;19967;-68
2022/12/17 18:58:07;;;;;;;;;;;14.60;99.90;;;;;;5038113;28;19962;-70
2022/12/17 19:00:33;;;;;;;;;;;14.60;99.90;;;;;;5046974;28;19919;-71
2022/12/17 19:03:02;;;;;;;;;;;14.50;99.90;;;;;;5040836;28;20432;-69
2022/12/17 19:05:29;;;;;;;;;;;14.50;99.90;;;;;;5035219;28;19977;-71
2022/12/17 19:07:56;;;;;;;;;;;14.50;99.90;;;;;;5037366;28;19913;-68
2022/12/17 19:10:23;;;;;;;;;;;14.60;99.90;;;;;;5035852;28;19917;-69
2022/12/17 19:12:49;;;;;;;;;;;14.60;99.90;;;;;;5036397;28;19955;-69
2022/12/17 19:15:16;;;;;;;;;;;14.50;99.90;;;;;;5035046;28;19915;-68
2022/12/17 19:17:43;;;;;;;;;;;14.60;99.90;;;;;;5036394;28;19913;-68
2022/12/17 19:20:10;;;;;;;;;;;14.60;99.90;;;;;;5035239;28;19951;-69
2022/12/17 19:22:36;;;;;;;;;;;14.60;99.90;;;;;;5035617;28;19913;-71
2022/12/17 19:25:03;;;;;;;;;;;14.60;99.90;;;;;;5036512;28;20281;-69
2022/12/17 19:27:30;;;;;;;;;;;14.60;99.90;;;;;;5035812;28;19931;-69
2022/12/17 19:29:56;;;;;;;;;;;14.70;99.90;;;;;;5037840;28;19927;-68
2022/12/17 19:32:23;;;;;;;;;;;14.60;99.90;;;;;;5037387;28;19990;-68
2022/12/17 19:34:50;;;;;;;;;;;14.70;99.90;;;;;;5037182;28;19909;-70
2022/12/17 19:37:17;;;;;;;;;;;14.70;99.90;;;;;;5036274;28;20281;-70
2022/12/17 19:39:43;;;;;;;;;;;14.80;99.90;;;;;;5037074;28;19981;-69
2022/12/17 19:42:23;;;;;;;;;;;14.80;99.90;;;;;;5050675;28;19913;-69
2022/12/17 19:44:50;;;;;;;;;;;15.00;99.90;;;;;;5055917;28;19912;-67
2022/12/17 19:47:17;;;;;;;;;;;14.80;99.90;;;;;;5056246;28;19954;-69
2022/12/17 19:49:43;;;;;;;;;;;14.90;99.90;;;;;;5056644;28;19923;-69
2022/12/17 19:52:10;;;;;;;;;;;14.90;99.90;;;;;;5053851;28;19912;-69
2022/12/17 19:54:37;;;;;;;;;;;14.90;99.90;;;;;;5052548;28;19928;-69
2022/12/17 19:57:03;;;;;;;;;;;14.90;99.90;;;;;;5052906;28;19915;-68
2022/12/17 19:59:30;;;;;;;;;;;15.00;99.90;;;;;;5054927;28;19912;-69
2022/12/17 20:01:57;;;;;;;;;;;15.00;99.90;;;;;;5055901;28;19908;-67
2022/12/17 20:04:23;;;;;;;;;;;15.00;99.90;;;;;;5053662;28;19909;-69
2022/12/17 20:06:50;;;;;;;;;;;15.10;99.90;;;;;;5040093;28;19954;-67
2022/12/17 20:09:17;;;;;;;;;;;15.10;99.90;;;;;;5055400;28;19912;-68
2022/12/17 20:11:43;;;;;;;;;;;15.10;99.90;;;;;;5055734;28;19962;-67
2022/12/17 20:14:12;;;;;;;;;;;15.20;99.90;;;;;;5036054;28;20385;-66
2022/12/17 20:16:39;;;;;;;;;;;15.20;99.90;;;;;;5035383;28;19913;-67
2022/12/17 20:19:07;;;;;;;;;;;15.30;99.90;;;;;;5036636;28;19920;-67
2022/12/17 20:21:34;;;;;;;;;;;15.40;99.90;;;;;;5046693;28;20011;-67
2022/12/17 20:24:00;;;;;;;;;;;15.40;99.90;;;;;;5056712;28;19947;-67
2022/12/17 20:26:27;;;;;;;;;;;15.40;99.90;;;;;;5054165;28;19920;-68
2022/12/17 20:28:54;;;;;;;;;;;15.50;99.90;;;;;;5055999;28;19913;-67
2022/12/17 20:31:21;;;;;;;;;;;15.50;99.90;;;;;;5055713;28;19975;-68
2022/12/17 20:33:47;;;;;;;;;;;15.60;99.90;;;;;;5056059;28;19916;-68
2022/12/17 20:36:16;;;;;;;;;;;15.70;99.90;;;;;;5056127;28;20388;-67
2022/12/17 20:38:43;;;;;;;;;;;15.70;99.90;;;;;;5035049;28;19913;-69
2022/12/17 20:41:10;;;;;;;;;;;15.70;99.90;;;;;;5035804;28;19909;-69
2022/12/17 20:43:37;;;;;;;;;;;15.70;99.90;;;;;;5035070;28;19913;-69
2022/12/17 20:46:04;;;;;;;;;;;15.80;99.90;;;;;;5035987;28;19920;-69
2022/12/17 20:48:31;;;;;;;;;;;15.80;99.90;;;;;;5050927;28;20365;-67
2022/12/17 20:50:58;;;;;;;;;;;15.90;99.90;;;;;;5047192;28;20427;-68
2022/12/17 20:53:25;;;;;;;;;;;15.80;99.90;;;;;;5036143;28;19939;-69
2022/12/17 20:56:05;;;;;;;;;;;15.90;99.90;;;;;;5037851;28;20324;-69
2022/12/17 20:58:32;;;;;;;;;;;15.90;99.90;;;;;;5055971;28;19908;-68
2022/12/17 21:01:03;;;;;;;;;;;15.90;99.90;;;;;;5053795;28;20371;-68
2022/12/17 21:03:31;;;;;;;;;;;16.00;99.90;;;;;;5055175;28;20297;-70
2022/12/17 21:06:08;;;;;;;;;;;16.00;99.90;;;;;;5055541;28;20257;-71
2022/12/17 21:08:35;;;;;;;;;;;15.90;99.90;;;;;;5057413;28;19920;-69
2022/12/17 21:11:01;;;;;;;;;;;15.90;99.90;;;;;;5049072;28;19916;-71
2022/12/17 21:13:28;;;;;;;;;;;15.90;99.90;;;;;;5055156;28;19912;-69
2022/12/17 21:15:56;;;;;;;;;;;16.00;99.90;;;;;;5056383;28;19952;-70
2022/12/17 21:18:23;;;;;;;;;;;16.00;99.90;;;;;;5052237;28;19915;-67
2022/12/17 21:21:01;;;;;;;;;;;16.00;99.90;;;;;;5052602;28;19948;-68
2022/12/17 21:23:28;;;;;;;;;;;16.10;99.90;;;;;;5033382;28;19913;-68
2022/12/17 21:25:59;;;;;;;;;;;16.10;99.90;;;;;;5034806;28;20358;-68
2022/12/17 21:28:26;;;;;;;;;;;16.20;99.90;;;;;;5048839;28;20514;-68
2022/12/17 21:30:53;;;;;;;;;;;16.20;99.90;;;;;;5053673;28;20373;-68
2022/12/17 21:33:19;;;;;;;;;;;16.10;99.90;;;;;;5051592;28;20162;-70
2022/12/17 21:35:46;;;;;;;;;;;16.10;99.90;;;;;;5054387;28;19908;-69
2022/12/17 21:38:13;;;;;;;;;;;16.10;99.90;;;;;;5052245;28;19958;-68
2022/12/17 21:40:39;;;;;;;;;;;16.00;99.90;;;;;;5051740;28;19967;-69
2022/12/17 21:43:06;;;;;;;;;;;16.10;99.90;;;;;;5054182;28;19999;-69
2022/12/17 21:45:36;;;;;;;;;;;16.10;99.90;;;;;;5052658;28;19965;-68
2022/12/17 21:48:07;;;;;;;;;;;16.20;99.90;;;;;;5055469;28;20333;-69
2022/12/17 21:50:34;;;;;;;;;;;16.40;99.90;;;;;;5052983;28;20011;-69
2022/12/17 21:53:00;;;;;;;;;;;16.50;99.90;;;;;;5046490;28;20496;-69
2022/12/17 21:55:27;;;;;;;;;;;16.50;99.90;;;;;;5031402;28;19913;-69
2022/12/17 21:57:54;;;;;;;;;;;16.60;99.90;;;;;;5047160;28;19913;-68
2022/12/17 22:00:22;;;;;;;;;;;16.70;99.90;;;;;;5039517;28;19913;-69
2022/12/17 22:02:48;;;;;;;;;;;16.70;99.90;;;;;;5054843;28;19909;-67
2022/12/17 22:05:15;;;;;;;;;;;16.80;99.90;;;;;;5053078;28;19908;-68
2022/12/17 22:07:42;;;;;;;;;;;16.80;99.90;;;;;;5052354;28;19938;-68
2022/12/17 22:10:08;;;;;;;;;;;16.80;99.90;;;;;;5054183;28;19916;-68
2022/12/17 22:15:20;;;;;;;;;;;16.80;99.90;;;;;;5052400;28;20012;-68
2022/12/17 22:17:47;;;;;;;;;;;16.80;99.90;;;;;;5053482;28;19974;-70
2022/12/17 22:20:17;;;;;;;;;;;16.90;99.90;;;;;;5038480;28;19935;-69
2022/12/17 22:22:44;;;;;;;;;;;17.00;99.90;;;;;;5032462;28;20240;-69
2022/12/17 22:25:11;;;;;;;;;;;17.00;99.90;;;;;;5033700;28;19917;-68
2022/12/17 22:27:38;;;;;;;;;;;17.20;99.90;;;;;;5042230;28;20669;-68
2022/12/17 22:32:59;;;;;;;;;;;17.40;99.90;;;;;;5035416;28;19923;-68
2022/12/17 22:35:26;;;;;;;;;;;17.60;99.90;;;;;;5032606;28;20362;-69
2022/12/17 22:37:53;;;;;;;;;;;17.60;99.90;;;;;;5046224;28;19916;-68
2022/12/17 22:40:21;;;;;;;;;;;17.70;99.90;;;;;;5052158;28;19962;-68
2022/12/17 22:45:33;;;;;;;;;;;17.70;99.90;;;;;;5051709;28;20606;-69
2022/12/17 22:47:59;;;;;;;;;;;17.70;99.90;;;;;;5053074;28;20172;-70
2022/12/17 22:50:26;;;;;;;;;;;17.80;99.90;;;;;;5052410;28;20284;-68
2022/12/17 22:52:53;;;;;;;;;;;17.90;99.90;;;;;;5048453;28;20012;-70
2022/12/17 22:55:19;;;;;;;;;;;18.00;99.90;;;;;;5032785;28;19998;-70
2022/12/17 22:57:46;;;;;;;;;;;18.10;99.90;;;;;;5043738;28;19908;-70
2022/12/17 23:00:16;;;;;;;;;;;18.20;99.90;;;;;;5053614;28;20415;-70
2022/12/17 23:02:43;;;;;;;;;;;18.30;99.90;;;;;;5053036;28;20008;-68
2022/12/17 23:05:09;;;;;;;;;;;18.40;99.90;;;;;;5052878;28;19912;-68
2022/12/17 23:07:36;;;;;;;;;;;18.50;99.90;;;;;;5045710;28;20280;-69
2022/12/17 23:10:03;;;;;;;;;;;18.60;99.90;;;;;;5051015;28;19916;-69
2022/12/17 23:15:14;;;;;;;;;;;18.50;99.90;;;;;;5053823;28;19958;-70
2022/12/17 23:17:41;;;;;;;;;;;18.60;99.90;;;;;;5049959;28;20030;-69
2022/12/17 23:20:08;;;;;;;;;;;18.60;99.90;;;;;;5052317;28;19962;-70
2022/12/17 23:22:35;;;;;;;;;;;18.50;99.90;;;;;;5052320;28;19913;-69
2022/12/17 23:25:01;;;;;;;;;;;18.50;99.90;;;;;;5052256;28;19909;-68
2022/12/17 23:27:28;;;;;;;;;;;18.70;99.90;;;;;;5051272;28;20381;-68
2022/12/17 23:29:55;;;;;;;;;;;18.80;99.90;;;;;;5034742;28;19924;-69
2022/12/17 23:32:21;;;;;;;;;;;18.90;99.90;;;;;;5031169;28;19984;-71
2022/12/17 23:34:48;;;;;;;;;;;19.10;99.90;;;;;;5032848;28;19996;-71
2022/12/17 23:37:14;;;;;;;;;;;19.30;99.90;;;;;;5033627;28;19919;-71
2022/12/17 23:39:41;;;;;;;;;;;19.50;99.90;;;;;;5038372;28;19920;-70
2022/12/17 23:42:08;;;;;;;;;;;19.60;99.90;;;;;;5036747;28;19959;-70
2022/12/17 23:44:34;;;;;;;;;;;19.80;99.90;;;;;;5033923;28;19913;-71
2022/12/17 23:47:01;;;;;;;;;;;19.90;99.90;;;;;;5036071;28;19909;-69
2022/12/17 23:49:28;;;;;;;;;;;20.00;99.90;;;;;;5035080;28;20436;-71
2022/12/17 23:51:54;;;;;;;;;;;20.00;99.90;;;;;;5035293;28;19916;-71
2022/12/17 23:54:21;;;;;;;;;;;20.00;99.90;;;;;;5034338;28;20266;-70
2022/12/17 23:56:48;;;;;;;;;;;19.90;99.90;;;;;;5036523;28;19923;-70
2022/12/17 23:59:14;;;;;;;;;;;19.70;99.90;;;;;;5036076;28;19931;-69
